Latest Weather Observations for Lord Howe Island Windy Point

IDN60801

Issued at 12:03 pm EST Sunday 2 August 2015 (issued every 30 minutes, with the page automatically refreshed every 10 minutes)

About weather observations | Map of weather stations | Latest weather observations for NSW | Other Formats
Station Details ID: 200715 Name: LORD HOWE ISLAND WINDY POINT Lat: -31.54 Lon: 159.07 Height: 4.0 m
Data from the previous 72 hours. | See also: Recent months for locations in New South Wales
Date/Time
EST
Temp
°C
App
Temp
°C
Dew
Point
Rel
Hum
%
Delta-T
°C
Wind Press
QNH
hPa
Press
MSL
hPa
Rain
since 9 am
mm
Dir
 
Spd
km/h
Gust
km/h
Spd
kts
Gust
kts
02/12:00pm - - - - - NW 30 48 16 26 - - -
02/11:30am - - - - - NW 28 46 15 25 - - -
02/11:07am - - - - - NW 30 48 16 26 - - -
02/11:00am - - - - - NW 32 48 17 26 - - -
02/10:30am - - - - - NW 28 44 15 24 - - -
02/10:00am - - - - - NW 24 35 13 19 - - -
02/09:30am - - - - - NW 26 35 14 19 - - -
02/09:00am - - - - - NNW 22 33 12 18 - - -
02/08:30am - - - - - NW 24 35 13 19 - - -
02/08:00am - - - - - NW 26 35 14 19 - - -
02/07:30am - - - - - NW 22 35 12 19 - - -
02/07:00am - - - - - NW 22 35 12 19 - - -
02/06:30am - - - - - NW 22 33 12 18 - - -
02/06:00am - - - - - NW 22 32 12 17 - - -
02/05:30am - - - - - NW 22 32 12 17 - - -
02/05:00am - - - - - NW 22 35 12 19 - - -
02/04:30am - - - - - NNW 19 30 10 16 - - -
02/04:00am - - - - - NNW 19 30 10 16 - - -
02/03:30am - - - - - NNW 19 26 10 14 - - -
02/03:00am - - - - - NW 19 28 10 15 - - -
02/02:30am - - - - - NNW 19 28 10 15 - - -
02/02:00am - - - - - NNW 17 24 9 13 - - -
02/01:30am - - - - - NNW 15 26 8 14 - - -
02/01:00am - - - - - NNW 13 24 7 13 - - -
02/12:30am - - - - - NW 13 20 7 11 - - -
02/12:00am - - - - - NNW 9 19 5 10 - - -
 
Date/Time
EST
Temp
°C
App
Temp
°C
Dew
Point
Rel
Hum
%
Delta-T
°C
Wind Press
QNH
hPa
Press
MSL
hPa
Rain
since 9 am
mm
Dir
 
Spd
km/h
Gust
km/h
Spd
kts
Gust
kts
01/11:30pm - - - - - NNW 9 15 5 8 - - -
01/11:00pm - - - - - NNW 9 17 5 9 - - -
01/10:30pm - - - - - NNW 11 17 6 9 - - -
01/10:00pm - - - - - NNW 11 17 6 9 - - -
01/09:30pm - - - - - NNW 9 15 5 8 - - -
01/09:00pm - - - - - NNW 9 15 5 8 - - -
01/08:30pm - - - - - NNW 7 9 4 5 - - -
01/08:00pm - - - - - NNW 7 11 4 6 - - -
01/07:30pm - - - - - NNW 9 11 5 6 - - -
01/07:00pm - - - - - NW 11 17 6 9 - - -
01/06:30pm - - - - - NW 9 13 5 7 - - -
01/06:00pm - - - - - NNW 9 13 5 7 - - -
01/05:30pm - - - - - NNW 9 13 5 7 - - -
01/05:00pm - - - - - NNW 9 13 5 7 - - -
01/04:30pm - - - - - NW 9 15 5 8 - - -
01/04:00pm - - - - - NW 11 17 6 9 - - -
01/03:30pm - - - - - WNW 17 20 9 11 - - -
01/03:00pm - - - - - W 22 26 12 14 - - -
01/02:30pm - - - - - W 22 26 12 14 - - -
01/02:00pm - - - - - WNW 19 24 10 13 - - -
01/01:30pm - - - - - WNW 19 22 10 12 - - -
01/01:00pm - - - - - NW 17 22 9 12 - - -
01/12:30pm - - - - - NW 13 20 7 11 - - -
01/12:00pm - - - - - NNE 11 19 6 10 - - -
01/11:30am - - - - - WNW 9 13 5 7 - - -
01/11:00am - - - - - W 13 19 7 10 - - -
01/10:30am - - - - - SW 7 11 4 6 - - -
01/10:00am - - - - - CALM 0 0 0 0 - - -
01/09:30am - - - - - CALM 0 0 0 0 - - -
01/09:00am - - - - - CALM 0 0 0 0 - - -
01/08:30am - - - - - CALM 0 0 0 0 - - -
01/08:00am - - - - - CALM 0 0 0 0 - - -
01/07:30am - - - - - CALM 0 0 0 0 - - -
01/07:00am - - - - - ENE 6 7 3 4 - - -
01/06:30am - - - - - CALM 0 0 0 0 - - -
01/06:00am - - - - - CALM 0 0 0 0 - - -
01/05:30am - - - - - CALM 0 0 0 0 - - -
01/05:00am - - - - - CALM 0 0 0 0 - - -
01/04:30am - - - - - CALM 0 0 0 0 - - -
01/04:00am - - - - - SE 4 7 2 4 - - -
01/03:30am - - - - - S 13 17 7 9 - - -
01/03:00am - - - - - NNW 6 17 3 9 - - -
01/02:30am - - - - - N 6 7 3 4 - - -
01/02:00am - - - - - CALM 0 2 0 1 - - -
01/01:30am - - - - - CALM 0 6 0 3 - - -
01/01:00am - - - - - CALM 0 0 0 0 - - -
01/12:30am - - - - - NNE 2 6 1 3 - - -
01/12:00am - - - - - CALM 0 0 0 0 - - -
 
Date/Time
EST
Temp
°C
App
Temp
°C
Dew
Point
Rel
Hum
%
Delta-T
°C
Wind Press
QNH
hPa
Press
MSL
hPa
Rain
since 9 am
mm
Dir
 
Spd
km/h
Gust
km/h
Spd
kts
Gust
kts
31/11:30pm - - - - - CALM 0 6 0 3 - - -
31/11:00pm - - - - - CALM 0 0 0 0 - - -
31/10:30pm - - - - - CALM 0 0 0 0 - - -
31/10:00pm - - - - - CALM 0 0 0 0 - - -
31/09:30pm - - - - - CALM 0 0 0 0 - - -
31/09:00pm - - - - - CALM 0 0 0 0 - - -
31/08:30pm - - - - - CALM 0 0 0 0 - - -
31/08:00pm - - - - - CALM 0 0 0 0 - - -
31/07:30pm - - - - - CALM 0 0 0 0 - - -
31/07:00pm - - - - - CALM 0 0 0 0 - - -
31/06:30pm - - - - - CALM 0 2 0 1 - - -
31/06:00pm - - - - - NNW 2 9 1 5 - - -
31/05:30pm - - - - - WNW 22 26 12 14 - - -
31/05:00pm - - - - - W 37 46 20 25 - - -
31/04:30pm - - - - - W 43 48 23 26 - - -
31/04:00pm - - - - - WNW 41 50 22 27 - - -
31/03:54pm - - - - - NW 33 50 18 27 - - -
31/03:50pm - - - - - NW 28 48 15 26 - - -
31/03:30pm - - - - - NW 28 35 15 19 - - -
31/03:00pm - - - - - NNW 24 35 13 19 - - -
31/02:30pm - - - - - NW 24 33 13 18 - - -
31/02:00pm - - - - - NW 28 37 15 20 - - -
31/01:30pm - - - - - NW 30 43 16 23 - - -
31/01:10pm - - - - - NW 28 46 15 25 - - -
31/01:00pm - - - - - NW 30 41 16 22 - - -
31/12:30pm - - - - - NW 28 43 15 23 - - -
31/12:00pm - - - - - NW 24 35 13 19 - - -
31/11:30am - - - - - NW 22 35 12 19 - - -
31/11:00am - - - - - NW 22 35 12 19 - - -
31/10:30am - - - - - NW 20 28 11 15 - - -
31/10:00am - - - - - NW 19 28 10 15 - - -
31/09:30am - - - - - NNW 20 32 11 17 - - -
31/09:00am - - - - - NNW 19 33 10 18 - - -
31/08:30am - - - - - NNW 20 28 11 15 - - -
31/08:00am - - - - - NW 15 30 8 16 - - -
31/07:30am - - - - - NNW 15 22 8 12 - - -
31/07:00am - - - - - NNW 11 20 6 11 - - -
31/06:30am - - - - - NW 11 17 6 9 - - -
31/06:00am - - - - - NW 7 13 4 7 - - -
31/05:30am - - - - - N 6 15 3 8 - - -
31/05:00am - - - - - NE 7 11 4 6 - - -
31/04:30am - - - - - N 6 11 3 6 - - -
31/04:00am - - - - - NNE 6 13 3 7 - - -
31/03:30am - - - - - N 6 13 3 7 - - -
31/03:00am - - - - - N 6 15 3 8 - - -
31/02:30am - - - - - NNE 9 17 5 9 - - -
31/02:00am - - - - - NNW 7 15 4 8 - - -
31/01:30am - - - - - NE 2 7 1 4 - - -
31/01:00am - - - - - NNE 7 15 4 8 - - -
31/12:30am - - - - - NE 9 15 5 8 - - -
31/12:00am - - - - - NE 11 17 6 9 - - -
 
Date/Time
EST
Temp
°C
App
Temp
°C
Dew
Point
Rel
Hum
%
Delta-T
°C
Wind Press
QNH
hPa
Press
MSL
hPa
Rain
since 9 am
mm
Dir
 
Spd
km/h
Gust
km/h
Spd
kts
Gust
kts
30/11:30pm - - - - - NNE 9 15 5 8 - - -
30/11:00pm - - - - - NE 13 26 7 14 - - -
30/10:30pm - - - - - NE 13 20 7 11 - - -
30/10:00pm - - - - - NE 11 19 6 10 - - -
30/09:30pm - - - - - NE 11 15 6 8 - - -
30/09:00pm - - - - - NNE 9 13 5 7 - - -
30/08:30pm - - - - - NNE 9 15 5 8 - - -
30/08:00pm - - - - - NNE 11 19 6 10 - - -
30/07:30pm - - - - - NE 9 15 5 8 - - -
30/07:00pm - - - - - NNE 11 19 6 10 - - -
30/06:30pm - - - - - NNE 9 15 5 8 - - -
30/06:00pm - - - - - NNE 9 17 5 9 - - -
30/05:30pm - - - - - NNE 13 20 7 11 - - -
30/05:00pm - - - - - ENE 11 15 6 8 - - -
30/04:30pm - - - - - NE 11 20 6 11 - - -
30/04:00pm - - - - - ENE 13 19 7 10 - - -
30/03:30pm - - - - - ENE 13 20 7 11 - - -
30/03:00pm - - - - - ENE 15 22 8 12 - - -
30/02:30pm - - - - - E 13 20 7 11 - - -
30/02:00pm - - - - - E 15 22 8 12 - - -
30/01:30pm - - - - - E 17 24 9 13 - - -
30/01:00pm - - - - - E 17 22 9 12 - - -
30/12:30pm - - - - - E 17 24 9 13 - - -

Other Formats:

Comma delimited format used in spreadsheet applications
http://www.bom.gov.au/fwo/IDN60801/IDN60801.95995.axf

JavaScript Object Notation format (JSON) in row-major order
http://www.bom.gov.au/fwo/IDN60801/IDN60801.95995.json